Главная страница
METAR-TAF:

METAR-TAF

Аэропорты :

Владивосток, Россия

широта: 43-07N, долгота: 131-56E, высота над уровнем моря: 184 м

Текущие метеонаблюдения

Эта сводка был подготовлена 24 минут назад, в 21:30 UTC
Ветер 2 Узел от северо-восточный
Температура 2°C
Влажность 75%
Давление 1007 hPa
Видимость: 9000 м

METAR: UHWW 252130Z 04001MPS 9000 NSC 02/M02 Q1007 R25L/0///70 NOSIG RMK QFE754

Время: 07:54 (21:54 UTC)

Прогноз

Эта сводка был подготовлена 1 час и 54 минут назад, в 20:00 UTC
Прогноз действительный с 25-го 21 UTC до 26-го 21 UTC
Ветер 6 Узел от юго-западный
Видимость: 4000 м
Отдельные облака на высоте 2000 фута
дымка, дым
изменения
С 26-го 00 UTC до 26-го 01 UTC
Видимость 10 км и более
Рассеянная облачность на высоте 2000 фута
изменения
С 26-го 09 UTC до 26-го 10 UTC
Ветер 6 Узел от северно-северо-западный
Рассеянная облачность на высоте 1200 фута, Кучево-дождевые.

TAF: UHWW 252000Z 2521/2621 23003MPS 4000 BR FU SCT020 BECMG 2600/2601 9999 NSW BKN020 BECMG 2609/2610 33003MPS BKN012CB

Метеонаблюдения и прогнозы для более 4000 аэропортов (сводки METAR и TAF).

Имеющиеся станции представлены на карте желтыми и красными точками.

Чтобы увидеть название станции, наведите на нее мышь.

Затем щелкните, чтобы увидеть метеонаблюдения и метеопрогнозы.

Управление картой: чтобы увеличить масштаб, щелкните зеленые кнопки с черным крестиком; чтобы уменьшить масштаб, щелкните зеленую кнопку с тире; для просмотра соседних карт щелкайте зеленые стрелки.


METAR-TAF: